createdAt,value
2023-01-08T14:14:51.351Z,5.60
2023-01-08T14:17:19.490Z,5.40
2023-01-08T14:19:46.921Z,4.70
2023-01-08T14:22:30.175Z,5.50
2023-01-08T14:24:59.087Z,6.10
2023-01-08T14:27:28.039Z,5.60
2023-01-08T14:29:55.413Z,7.00
2023-01-08T14:32:24.683Z,7.90
2023-01-08T14:34:53.024Z,9.70
2023-01-08T14:37:20.407Z,13.50
2023-01-08T14:39:54.516Z,13.60
2023-01-08T14:42:42.086Z,10.80
2023-01-08T14:45:17.141Z,9.10
2023-01-08T14:47:49.736Z,10.10
2023-01-08T14:50:34.395Z,10.90
2023-01-08T14:53:25.446Z,7.20
2023-01-08T14:55:53.356Z,5.30
2023-01-08T14:58:25.528Z,5.30
2023-01-08T15:01:00.928Z,4.80
2023-01-08T15:03:32.414Z,4.30
2023-01-08T15:05:59.794Z,4.10
2023-01-08T15:08:28.338Z,4.70
2023-01-08T15:11:15.719Z,4.50
2023-01-08T15:13:43.043Z,4.90
2023-01-08T15:16:32.200Z,4.80
2023-01-08T15:19:07.397Z,4.80
2023-01-08T15:21:35.048Z,5.10
2023-01-08T15:24:02.868Z,5.50
2023-01-08T15:26:30.212Z,4.10
2023-01-08T15:28:58.580Z,5.00
2023-01-08T15:31:33.247Z,5.40
2023-01-08T15:34:00.781Z,6.20
2023-01-08T15:36:28.165Z,5.50
2023-01-08T15:38:55.436Z,6.20
2023-01-08T15:41:42.286Z,5.60
2023-01-08T15:44:10.565Z,5.40
2023-01-08T15:46:37.793Z,5.10
2023-01-08T15:49:05.255Z,5.00
2023-01-08T15:51:33.707Z,4.70
2023-01-08T15:54:01.914Z,4.70
2023-01-08T15:56:29.269Z,4.60
2023-01-08T15:58:56.583Z,4.70
2023-01-08T16:01:23.963Z,4.60
2023-01-08T16:03:51.462Z,5.50
2023-01-08T16:06:18.723Z,4.60
2023-01-08T16:08:46.656Z,4.40
2023-01-08T16:11:14.138Z,5.50
2023-01-08T16:13:41.491Z,5.10
2023-01-08T16:16:13.453Z,5.40
2023-01-08T16:18:41.014Z,5.20
2023-01-08T16:21:09.115Z,5.30
2023-01-08T16:23:37.571Z,5.90
2023-01-08T16:26:12.856Z,4.60
2023-01-08T16:28:40.894Z,6.40
2023-01-08T16:31:08.453Z,5.60
2023-01-08T16:33:35.771Z,4.30
2023-01-08T16:36:05.181Z,4.90
2023-01-08T16:38:33.556Z,5.30
2023-01-08T16:41:01.195Z,5.00
2023-01-08T16:43:30.140Z,5.40
2023-01-08T16:46:03.372Z,4.60
2023-01-08T16:48:31.132Z,4.70
2023-01-08T16:51:03.967Z,4.30
2023-01-08T16:53:31.538Z,4.40
2023-01-08T16:56:00.325Z,4.70
2023-01-08T16:58:27.731Z,4.80
2023-01-08T17:00:55.304Z,4.50
2023-01-08T17:03:22.650Z,6.00
2023-01-08T17:05:50.474Z,6.70
2023-01-08T17:08:20.105Z,6.30
2023-01-08T17:10:47.581Z,5.60
2023-01-08T17:13:14.870Z,6.30
2023-01-08T17:15:42.619Z,8.30
2023-01-08T17:18:09.908Z,9.70
2023-01-08T17:20:37.229Z,6.30
2023-01-08T17:23:04.576Z,5.70
2023-01-08T17:25:31.860Z,5.90
2023-01-08T17:27:59.169Z,8.00
2023-01-08T17:30:26.425Z,5.70
2023-01-08T17:32:53.710Z,5.90
2023-01-08T17:35:20.993Z,5.60
2023-01-08T17:37:48.290Z,5.50
2023-01-08T17:40:15.739Z,5.20
2023-01-08T17:42:42.992Z,4.70
2023-01-08T17:45:11.112Z,5.00
2023-01-08T17:47:39.485Z,5.20
2023-01-08T17:50:07.079Z,6.20
2023-01-08T17:52:34.318Z,5.80
2023-01-08T17:55:01.612Z,5.70
2023-01-08T17:57:31.986Z,4.70
2023-01-08T18:00:00.389Z,4.40
2023-01-08T18:02:28.183Z,6.00
2023-01-08T18:04:55.626Z,6.60
2023-01-08T18:07:24.187Z,5.10
2023-01-08T18:09:54.603Z,6.40
2023-01-08T18:12:21.902Z,5.90
2023-01-08T18:14:49.211Z,4.30
2023-01-08T18:17:16.446Z,6.40
2023-01-08T18:19:43.725Z,5.30
2023-01-08T18:22:10.972Z,5.70
2023-01-08T18:24:38.249Z,5.10
2023-01-08T18:27:05.514Z,6.20
2023-01-08T18:29:32.819Z,5.20
2023-01-08T18:32:00.484Z,6.70
2023-01-08T18:34:27.789Z,4.80
2023-01-08T18:36:55.107Z,4.90
2023-01-08T18:39:22.746Z,4.60
2023-01-08T18:42:10.221Z,4.60
2023-01-08T18:44:37.455Z,4.00
2023-01-08T18:47:04.705Z,4.20
2023-01-08T18:49:31.897Z,3.80
2023-01-08T18:51:59.148Z,4.80
2023-01-08T18:54:26.450Z,4.60
2023-01-08T18:56:53.702Z,6.10
2023-01-08T18:59:20.985Z,4.60
2023-01-08T19:01:48.449Z,4.50
2023-01-08T19:04:18.649Z,5.10
2023-01-08T19:06:46.231Z,5.00
2023-01-08T19:09:15.019Z,4.50
2023-01-08T19:11:45.158Z,4.30
2023-01-08T19:14:12.895Z,4.70
2023-01-08T19:16:40.782Z,5.30
2023-01-08T19:19:08.044Z,4.60
2023-01-08T19:21:35.791Z,4.00
2023-01-08T19:24:03.062Z,5.10
2023-01-08T19:26:30.392Z,4.10
2023-01-08T19:28:57.661Z,4.70
2023-01-08T19:31:25.043Z,4.90
2023-01-08T19:33:53.092Z,4.90
2023-01-08T19:36:21.432Z,4.50
2023-01-08T19:38:48.695Z,5.70
2023-01-08T19:41:34.591Z,4.80
2023-01-08T19:44:02.048Z,5.50
2023-01-08T19:46:29.821Z,4.60
2023-01-08T19:49:00.528Z,4.90
2023-01-08T19:51:28.949Z,4.90
2023-01-08T19:53:56.280Z,5.30
2023-01-08T19:56:23.623Z,5.00
2023-01-08T19:58:50.982Z,4.50
2023-01-08T20:01:20.701Z,5.30
2023-01-08T20:03:48.147Z,5.40
2023-01-08T20:06:19.880Z,4.30
2023-01-08T20:08:48.118Z,5.90
2023-01-08T20:11:16.249Z,6.50
2023-01-08T20:13:43.952Z,5.40
2023-01-08T20:16:15.719Z,4.90
2023-01-08T20:18:43.215Z,6.50
2023-01-08T20:21:18.122Z,6.50
2023-01-08T20:23:45.423Z,5.90
2023-01-08T20:26:18.267Z,6.20
2023-01-08T20:28:46.168Z,5.80
2023-01-08T20:31:15.885Z,5.80
2023-01-08T20:33:43.252Z,5.80
2023-01-08T20:36:13.043Z,4.80
2023-01-08T20:38:40.591Z,4.40
2023-01-08T20:41:08.251Z,5.10
2023-01-08T20:43:36.118Z,6.10
2023-01-08T20:46:03.646Z,7.00
2023-01-08T20:48:34.366Z,6.10
2023-01-08T20:51:05.000Z,6.20
2023-01-08T20:53:34.480Z,6.90
2023-01-08T20:56:07.008Z,6.20
2023-01-08T21:01:11.518Z,5.20
2023-01-08T21:03:39.419Z,5.70
2023-01-08T21:06:11.213Z,6.20
2023-01-08T21:08:39.880Z,6.60
2023-01-08T21:11:07.782Z,6.50
2023-01-08T21:13:35.429Z,5.00
2023-01-08T21:16:04.587Z,6.40
2023-01-08T21:18:32.053Z,5.40
2023-01-08T21:21:03.823Z,5.20
2023-01-08T21:23:31.852Z,5.70
2023-01-08T21:26:04.459Z,5.30
2023-01-08T21:31:20.006Z,4.90
2023-01-08T21:33:48.687Z,5.30
2023-01-08T21:36:21.476Z,4.60
2023-01-08T21:38:48.929Z,5.20
2023-01-08T21:41:39.589Z,5.90
2023-01-08T21:44:48.921Z,5.10
2023-01-08T21:47:17.410Z,5.10
2023-01-08T21:49:45.420Z,6.00
2023-01-08T21:52:31.467Z,5.30
2023-01-08T21:54:58.785Z,6.00
2023-01-08T21:57:28.197Z,5.80
2023-01-08T21:59:55.652Z,5.10
2023-01-08T22:02:23.718Z,6.20
2023-01-08T22:04:51.245Z,7.00
2023-01-08T22:07:18.678Z,7.30
2023-01-08T22:09:46.128Z,6.70
2023-01-08T22:12:14.337Z,8.50
2023-01-08T22:14:41.841Z,8.40
2023-01-08T22:17:10.381Z,7.30
2023-01-08T22:19:38.507Z,6.30
2023-01-08T22:22:05.872Z,7.30
2023-01-08T22:24:33.143Z,8.20
2023-01-08T22:27:00.567Z,7.30
2023-01-08T22:29:29.054Z,7.10
2023-01-08T22:31:56.588Z,6.50
2023-01-08T22:34:24.066Z,6.60
2023-01-08T22:36:52.399Z,6.30
2023-01-08T22:39:19.808Z,7.10
2023-01-08T22:41:47.139Z,6.60
2023-01-08T22:44:14.714Z,6.50
2023-01-08T22:46:42.378Z,6.50
2023-01-08T22:49:13.536Z,6.30
2023-01-08T22:51:44.658Z,5.00
2023-01-08T22:54:13.259Z,5.50
2023-01-08T22:56:40.511Z,5.70
2023-01-08T22:59:07.768Z,6.10
2023-01-08T23:01:35.180Z,6.10
2023-01-08T23:04:02.850Z,5.70
2023-01-08T23:06:30.676Z,5.50
2023-01-08T23:08:58.299Z,4.90
2023-01-08T23:11:26.580Z,5.30
2023-01-08T23:13:53.930Z,4.60
2023-01-08T23:16:24.484Z,5.10
2023-01-08T23:18:53.468Z,3.80
2023-01-08T23:21:22.231Z,5.00
2023-01-08T23:23:49.685Z,5.20
2023-01-08T23:26:28.351Z,5.20
2023-01-08T23:28:56.761Z,4.50
2023-01-08T23:31:26.686Z,4.50
2023-01-08T23:33:54.170Z,4.90
2023-01-08T23:36:21.634Z,4.20
2023-01-08T23:38:51.142Z,5.20
2023-01-08T23:41:19.619Z,5.50
2023-01-08T23:43:51.785Z,4.40
2023-01-08T23:46:19.328Z,5.40
2023-01-08T23:48:46.791Z,4.60
2023-01-08T23:51:14.155Z,3.70
2023-01-08T23:53:41.705Z,4.50
2023-01-08T23:56:09.235Z,4.60
2023-01-08T23:58:37.235Z,4.20
